KSDF Airport Diagram

We have created a template for each of the higher traffic airports in the vZID airspace. They include KCMH, KCRW, KCVG, KDAY, KIND, KLEX and KSDF. You wil find usefull information including the airport diagram, weather, and specific airport procedures.

KSDF Weather

[Source: ADDS]
METAR
KSDF 232356Z 12005KT 10SM FEW180 BKN250 BKN300 13/M07 A3025 RMK AO2 SLP245 T01331067 10167 20122 55008 $ =
KSDF 232331Z 2400/2506 VRB03KT P6SM BKN250 FM241200 16005KT P6SM OVC100 FM241700 19010KT P6SM OVC040 PROB30 2418/2422 -SHRA FM250100 18006KT P6SM OVC040
TAF
KSDF 232331Z 2400/2506 VRB03KT P6SM BKN250 FM241200 16005KT P6SM OVC100 FM241700 19010KT P6SM OVC040 PROB30 2418/2422 -SHRA FM250100 18006KT P6SM OVC040 =

KSDF Operations

Calm Wind Configuration is runways 17L and 17R.

Runway 17L typically departs north and east.

Runway 17R typicall departs south and west.

 

JSN Epic template designed by JoomlaShine.com